sensor_id;sensor_type;location;lat;lon;timestamp;P1;durP1;ratioP1;P2;durP2;ratioP2
25045;SDS011;13044;49.304;12.840;2023-10-13T00:01:35;11.65;;;6.35;;
25045;SDS011;13044;49.304;12.840;2023-10-13T00:04:04;10.10;;;6.50;;
25045;SDS011;13044;49.304;12.840;2023-10-13T00:06:32;8.85;;;6.53;;
25045;SDS011;13044;49.304;12.840;2023-10-13T00:08:58;13.57;;;6.85;;
25045;SDS011;13044;49.304;12.840;2023-10-13T00:11:25;13.38;;;7.30;;
25045;SDS011;13044;49.304;12.840;2023-10-13T00:13:53;12.25;;;8.00;;
25045;SDS011;13044;49.304;12.840;2023-10-13T00:16:20;10.55;;;6.45;;
25045;SDS011;13044;49.304;12.840;2023-10-13T00:18:50;12.25;;;7.20;;
25045;SDS011;13044;49.304;12.840;2023-10-13T00:21:21;12.63;;;7.22;;
25045;SDS011;13044;49.304;12.840;2023-10-13T00:23:57;13.90;;;7.50;;
25045;SDS011;13044;49.304;12.840;2023-10-13T00:26:32;11.10;;;7.68;;
25045;SDS011;13044;49.304;12.840;2023-10-13T00:29:03;14.43;;;8.30;;
25045;SDS011;13044;49.304;12.840;2023-10-13T00:31:37;9.55;;;7.22;;
25045;SDS011;13044;49.304;12.840;2023-10-13T00:34:10;9.88;;;7.18;;
25045;SDS011;13044;49.304;12.840;2023-10-13T00:36:39;9.70;;;7.20;;
25045;SDS011;13044;49.304;12.840;2023-10-13T00:39:37;14.05;;;7.75;;
25045;SDS011;13044;49.304;12.840;2023-10-13T00:42:10;17.08;;;8.75;;
25045;SDS011;13044;49.304;12.840;2023-10-13T00:44:46;10.05;;;7.72;;
25045;SDS011;13044;49.304;12.840;2023-10-13T00:47:16;12.05;;;7.55;;
25045;SDS011;13044;49.304;12.840;2023-10-13T00:50:06;11.95;;;7.03;;
25045;SDS011;13044;49.304;12.840;2023-10-13T00:52:37;13.00;;;7.65;;
25045;SDS011;13044;49.304;12.840;2023-10-13T00:55:08;11.15;;;7.43;;
25045;SDS011;13044;49.304;12.840;2023-10-13T00:57:37;8.60;;;6.47;;
25045;SDS011;13044;49.304;12.840;2023-10-13T01:00:08;9.75;;;6.63;;
25045;SDS011;13044;49.304;12.840;2023-10-13T01:03:07;11.52;;;7.38;;
25045;SDS011;13044;49.304;12.840;2023-10-13T01:05:34;18.85;;;7.28;;
25045;SDS011;13044;49.304;12.840;2023-10-13T01:08:03;11.50;;;7.10;;
25045;SDS011;13044;49.304;12.840;2023-10-13T01:10:30;10.18;;;7.65;;
25045;SDS011;13044;49.304;12.840;2023-10-13T01:12:59;11.30;;;7.60;;
25045;SDS011;13044;49.304;12.840;2023-10-13T01:15:28;12.60;;;7.30;;
25045;SDS011;13044;49.304;12.840;2023-10-13T01:18:06;16.83;;;7.68;;
25045;SDS011;13044;49.304;12.840;2023-10-13T01:20:39;10.52;;;7.80;;
25045;SDS011;13044;49.304;12.840;2023-10-13T01:23:15;18.98;;;8.45;;
25045;SDS011;13044;49.304;12.840;2023-10-13T01:25:45;10.50;;;7.38;;
25045;SDS011;13044;49.304;12.840;2023-10-13T01:28:14;11.95;;;7.15;;
25045;SDS011;13044;49.304;12.840;2023-10-13T01:30:44;11.73;;;7.20;;
25045;SDS011;13044;49.304;12.840;2023-10-13T01:33:18;12.90;;;7.88;;
25045;SDS011;13044;49.304;12.840;2023-10-13T01:35:54;13.90;;;8.05;;
25045;SDS011;13044;49.304;12.840;2023-10-13T01:38:24;12.60;;;7.57;;
25045;SDS011;13044;49.304;12.840;2023-10-13T01:40:53;15.52;;;8.02;;
25045;SDS011;13044;49.304;12.840;2023-10-13T01:43:22;11.63;;;8.10;;
25045;SDS011;13044;49.304;12.840;2023-10-13T01:45:50;12.43;;;8.13;;
25045;SDS011;13044;49.304;12.840;2023-10-13T01:48:17;11.05;;;8.18;;
25045;SDS011;13044;49.304;12.840;2023-10-13T01:50:47;19.25;;;9.30;;
25045;SDS011;13044;49.304;12.840;2023-10-13T01:53:20;11.13;;;8.25;;
25045;SDS011;13044;49.304;12.840;2023-10-13T01:55:48;10.60;;;7.65;;
25045;SDS011;13044;49.304;12.840;2023-10-13T01:58:16;14.65;;;9.05;;
25045;SDS011;13044;49.304;12.840;2023-10-13T02:00:46;10.48;;;7.32;;
25045;SDS011;13044;49.304;12.840;2023-10-13T02:03:14;11.45;;;6.88;;
25045;SDS011;13044;49.304;12.840;2023-10-13T02:05:48;12.43;;;7.53;;
25045;SDS011;13044;49.304;12.840;2023-10-13T02:08:20;13.10;;;7.75;;
25045;SDS011;13044;49.304;12.840;2023-10-13T02:10:51;12.10;;;7.97;;
25045;SDS011;13044;49.304;12.840;2023-10-13T02:13:20;13.68;;;7.65;;
25045;SDS011;13044;49.304;12.840;2023-10-13T02:15:53;13.93;;;7.93;;
25045;SDS011;13044;49.304;12.840;2023-10-13T02:18:30;12.38;;;6.85;;
25045;SDS011;13044;49.304;12.840;2023-10-13T02:21:07;8.48;;;5.97;;
25045;SDS011;13044;49.304;12.840;2023-10-13T02:26:12;11.98;;;7.55;;
25045;SDS011;13044;49.304;12.840;2023-10-13T02:28:42;12.45;;;7.68;;
25045;SDS011;13044;49.304;12.840;2023-10-13T02:31:17;9.77;;;6.72;;
25045;SDS011;13044;49.304;12.840;2023-10-13T02:33:46;8.82;;;6.03;;
25045;SDS011;13044;49.304;12.840;2023-10-13T02:36:12;9.70;;;6.40;;
25045;SDS011;13044;49.304;12.840;2023-10-13T02:38:45;14.68;;;7.80;;
25045;SDS011;13044;49.304;12.840;2023-10-13T02:41:13;9.85;;;6.90;;
25045;SDS011;13044;49.304;12.840;2023-10-13T02:43:55;11.63;;;7.20;;
25045;SDS011;13044;49.304;12.840;2023-10-13T02:46:22;16.00;;;7.80;;
25045;SDS011;13044;49.304;12.840;2023-10-13T02:48:51;10.98;;;7.20;;
25045;SDS011;13044;49.304;12.840;2023-10-13T02:51:22;10.88;;;6.15;;
25045;SDS011;13044;49.304;12.840;2023-10-13T02:53:57;11.80;;;6.82;;
25045;SDS011;13044;49.304;12.840;2023-10-13T02:56:29;12.10;;;6.53;;
25045;SDS011;13044;49.304;12.840;2023-10-13T02:58:56;11.50;;;8.07;;
25045;SDS011;13044;49.304;12.840;2023-10-13T03:01:23;10.82;;;6.85;;
25045;SDS011;13044;49.304;12.840;2023-10-13T03:04:01;10.57;;;6.45;;
25045;SDS011;13044;49.304;12.840;2023-10-13T03:06:29;12.10;;;7.53;;
25045;SDS011;13044;49.304;12.840;2023-10-13T03:09:00;9.98;;;7.05;;
25045;SDS011;13044;49.304;12.840;2023-10-13T03:11:46;11.80;;;7.75;;
25045;SDS011;13044;49.304;12.840;2023-10-13T03:14:15;9.57;;;6.93;;
25045;SDS011;13044;49.304;12.840;2023-10-13T03:16:55;13.52;;;6.70;;
25045;SDS011;13044;49.304;12.840;2023-10-13T03:19:35;12.13;;;6.60;;
25045;SDS011;13044;49.304;12.840;2023-10-13T03:22:03;10.10;;;6.60;;
25045;SDS011;13044;49.304;12.840;2023-10-13T03:24:36;10.43;;;6.93;;
25045;SDS011;13044;49.304;12.840;2023-10-13T03:27:13;10.90;;;7.00;;
25045;SDS011;13044;49.304;12.840;2023-10-13T03:29:44;10.57;;;7.35;;
25045;SDS011;13044;49.304;12.840;2023-10-13T03:32:21;10.95;;;6.93;;
25045;SDS011;13044;49.304;12.840;2023-10-13T03:34:52;12.50;;;7.53;;
25045;SDS011;13044;49.304;12.840;2023-10-13T03:37:25;11.38;;;6.40;;
25045;SDS011;13044;49.304;12.840;2023-10-13T03:40:11;11.18;;;7.10;;
25045;SDS011;13044;49.304;12.840;2023-10-13T03:43:02;11.32;;;6.90;;
25045;SDS011;13044;49.304;12.840;2023-10-13T03:45:40;10.10;;;7.15;;
25045;SDS011;13044;49.304;12.840;2023-10-13T03:48:10;9.75;;;6.88;;
25045;SDS011;13044;49.304;12.840;2023-10-13T03:50:54;12.68;;;8.25;;
25045;SDS011;13044;49.304;12.840;2023-10-13T03:53:29;12.63;;;7.20;;
25045;SDS011;13044;49.304;12.840;2023-10-13T03:56:03;14.50;;;8.18;;
25045;SDS011;13044;49.304;12.840;2023-10-13T03:58:35;11.05;;;7.43;;
25045;SDS011;13044;49.304;12.840;2023-10-13T04:01:05;11.18;;;6.85;;
25045;SDS011;13044;49.304;12.840;2023-10-13T04:03:32;12.10;;;7.25;;
25045;SDS011;13044;49.304;12.840;2023-10-13T04:06:06;15.88;;;7.53;;
25045;SDS011;13044;49.304;12.840;2023-10-13T04:08:33;12.95;;;8.15;;
25045;SDS011;13044;49.304;12.840;2023-10-13T04:11:09;11.80;;;7.55;;
25045;SDS011;13044;49.304;12.840;2023-10-13T04:13:55;9.82;;;6.30;;
25045;SDS011;13044;49.304;12.840;2023-10-13T04:16:40;13.45;;;7.40;;
25045;SDS011;13044;49.304;12.840;2023-10-13T04:19:21;12.77;;;8.07;;
25045;SDS011;13044;49.304;12.840;2023-10-13T04:21:52;10.77;;;6.90;;
25045;SDS011;13044;49.304;12.840;2023-10-13T04:24:25;10.85;;;7.60;;
25045;SDS011;13044;49.304;12.840;2023-10-13T04:27:12;10.00;;;6.75;;
25045;SDS011;13044;49.304;12.840;2023-10-13T04:29:39;14.55;;;8.38;;
25045;SDS011;13044;49.304;12.840;2023-10-13T04:32:36;10.20;;;6.78;;
25045;SDS011;13044;49.304;12.840;2023-10-13T04:35:12;12.30;;;6.88;;
25045;SDS011;13044;49.304;12.840;2023-10-13T04:37:39;12.85;;;7.70;;
25045;SDS011;13044;49.304;12.840;2023-10-13T04:40:40;9.02;;;6.72;;
25045;SDS011;13044;49.304;12.840;2023-10-13T04:43:25;13.00;;;7.15;;
25045;SDS011;13044;49.304;12.840;2023-10-13T04:46:11;11.70;;;6.70;;
25045;SDS011;13044;49.304;12.840;2023-10-13T04:49:02;14.00;;;7.55;;
25045;SDS011;13044;49.304;12.840;2023-10-13T04:51:37;13.20;;;7.70;;
25045;SDS011;13044;49.304;12.840;2023-10-13T04:54:19;10.23;;;7.15;;
25045;SDS011;13044;49.304;12.840;2023-10-13T05:02:03;10.77;;;6.50;;
25045;SDS011;13044;49.304;12.840;2023-10-13T05:04:49;11.32;;;7.53;;
25045;SDS011;13044;49.304;12.840;2023-10-13T05:07:32;11.98;;;6.75;;
25045;SDS011;13044;49.304;12.840;2023-10-13T05:10:18;9.93;;;7.22;;
25045;SDS011;13044;49.304;12.840;2023-10-13T05:13:04;12.00;;;6.53;;
25045;SDS011;13044;49.304;12.840;2023-10-13T05:15:50;14.82;;;7.35;;
25045;SDS011;13044;49.304;12.840;2023-10-13T05:18:36;9.45;;;6.90;;
25045;SDS011;13044;49.304;12.840;2023-10-13T05:21:22;8.65;;;6.35;;
25045;SDS011;13044;49.304;12.840;2023-10-13T05:24:08;9.80;;;5.95;;
25045;SDS011;13044;49.304;12.840;2023-10-13T05:26:53;10.05;;;6.78;;
25045;SDS011;13044;49.304;12.840;2023-10-13T05:29:42;10.35;;;6.75;;
25045;SDS011;13044;49.304;12.840;2023-10-13T05:32:30;14.38;;;7.43;;
25045;SDS011;13044;49.304;12.840;2023-10-13T05:35:16;9.63;;;6.40;;
25045;SDS011;13044;49.304;12.840;2023-10-13T05:38:06;12.00;;;7.60;;
25045;SDS011;13044;49.304;12.840;2023-10-13T05:40:52;13.50;;;7.47;;
25045;SDS011;13044;49.304;12.840;2023-10-13T05:43:46;12.93;;;7.28;;
25045;SDS011;13044;49.304;12.840;2023-10-13T05:46:33;12.52;;;7.28;;
25045;SDS011;13044;49.304;12.840;2023-10-13T05:49:06;11.13;;;7.68;;
25045;SDS011;13044;49.304;12.840;2023-10-13T05:51:38;10.45;;;6.88;;
25045;SDS011;13044;49.304;12.840;2023-10-13T05:54:07;10.68;;;7.20;;
25045;SDS011;13044;49.304;12.840;2023-10-13T05:56:47;8.00;;;6.10;;
25045;SDS011;13044;49.304;12.840;2023-10-13T05:59:35;10.50;;;6.88;;
25045;SDS011;13044;49.304;12.840;2023-10-13T06:02:22;11.52;;;7.13;;
25045;SDS011;13044;49.304;12.840;2023-10-13T06:05:09;13.23;;;6.82;;
25045;SDS011;13044;49.304;12.840;2023-10-13T06:07:57;11.00;;;7.50;;
25045;SDS011;13044;49.304;12.840;2023-10-13T06:10:43;10.57;;;6.35;;
25045;SDS011;13044;49.304;12.840;2023-10-13T06:13:29;9.65;;;6.40;;
25045;SDS011;13044;49.304;12.840;2023-10-13T06:16:15;12.98;;;7.00;;
25045;SDS011;13044;49.304;12.840;2023-10-13T06:19:02;11.00;;;7.20;;
25045;SDS011;13044;49.304;12.840;2023-10-13T06:21:48;7.80;;;6.22;;
25045;SDS011;13044;49.304;12.840;2023-10-13T06:24:33;11.95;;;6.57;;
25045;SDS011;13044;49.304;12.840;2023-10-13T06:27:19;13.70;;;8.23;;
25045;SDS011;13044;49.304;12.840;2023-10-13T06:30:05;13.27;;;7.97;;
25045;SDS011;13044;49.304;12.840;2023-10-13T06:32:32;12.88;;;7.50;;
25045;SDS011;13044;49.304;12.840;2023-10-13T06:34:59;10.30;;;7.05;;
25045;SDS011;13044;49.304;12.840;2023-10-13T06:37:45;9.45;;;7.40;;
25045;SDS011;13044;49.304;12.840;2023-10-13T06:40:13;12.85;;;7.68;;
25045;SDS011;13044;49.304;12.840;2023-10-13T06:43:03;16.58;;;7.70;;
25045;SDS011;13044;49.304;12.840;2023-10-13T06:45:39;12.68;;;6.82;;
25045;SDS011;13044;49.304;12.840;2023-10-13T06:48:06;12.73;;;7.93;;
25045;SDS011;13044;49.304;12.840;2023-10-13T06:50:37;15.02;;;8.65;;
25045;SDS011;13044;49.304;12.840;2023-10-13T06:53:08;12.63;;;7.45;;
25045;SDS011;13044;49.304;12.840;2023-10-13T06:55:38;16.85;;;8.07;;
25045;SDS011;13044;49.304;12.840;2023-10-13T06:58:06;11.13;;;7.78;;
25045;SDS011;13044;49.304;12.840;2023-10-13T07:00:40;16.08;;;8.50;;
25045;SDS011;13044;49.304;12.840;2023-10-13T07:03:07;14.10;;;8.02;;
25045;SDS011;13044;49.304;12.840;2023-10-13T07:05:44;12.15;;;7.55;;
25045;SDS011;13044;49.304;12.840;2023-10-13T07:08:15;12.18;;;6.85;;
25045;SDS011;13044;49.304;12.840;2023-10-13T07:10:51;11.50;;;7.90;;
25045;SDS011;13044;49.304;12.840;2023-10-13T07:13:29;17.80;;;8.50;;
25045;SDS011;13044;49.304;12.840;2023-10-13T07:15:56;14.00;;;8.23;;
25045;SDS011;13044;49.304;12.840;2023-10-13T07:22:33;13.18;;;8.43;;
25045;SDS011;13044;49.304;12.840;2023-10-13T07:25:06;11.73;;;7.32;;
25045;SDS011;13044;49.304;12.840;2023-10-13T07:27:33;12.38;;;7.40;;
25045;SDS011;13044;49.304;12.840;2023-10-13T07:30:01;12.68;;;7.60;;
25045;SDS011;13044;49.304;12.840;2023-10-13T07:32:40;11.07;;;7.07;;
25045;SDS011;13044;49.304;12.840;2023-10-13T07:35:17;11.57;;;7.32;;
25045;SDS011;13044;49.304;12.840;2023-10-13T07:37:51;12.98;;;7.07;;
25045;SDS011;13044;49.304;12.840;2023-10-13T07:40:20;11.98;;;7.18;;
25045;SDS011;13044;49.304;12.840;2023-10-13T07:43:06;12.00;;;7.43;;
25045;SDS011;13044;49.304;12.840;2023-10-13T07:45:37;11.02;;;6.60;;
25045;SDS011;13044;49.304;12.840;2023-10-13T07:48:10;17.25;;;6.95;;
25045;SDS011;13044;49.304;12.840;2023-10-13T07:51:08;13.40;;;7.05;;
25045;SDS011;13044;49.304;12.840;2023-10-13T07:53:45;11.07;;;6.90;;
25045;SDS011;13044;49.304;12.840;2023-10-13T07:56:15;12.82;;;6.32;;
25045;SDS011;13044;49.304;12.840;2023-10-13T07:58:47;9.68;;;6.10;;
25045;SDS011;13044;49.304;12.840;2023-10-13T08:01:30;14.82;;;5.90;;
25045;SDS011;13044;49.304;12.840;2023-10-13T08:03:59;11.93;;;6.38;;
25045;SDS011;13044;49.304;12.840;2023-10-13T08:06:35;11.65;;;6.43;;
25045;SDS011;13044;49.304;12.840;2023-10-13T08:09:04;15.18;;;6.78;;
25045;SDS011;13044;49.304;12.840;2023-10-13T08:11:49;14.77;;;6.40;;
25045;SDS011;13044;49.304;12.840;2023-10-13T08:14:20;9.52;;;5.85;;
25045;SDS011;13044;49.304;12.840;2023-10-13T08:17:07;16.05;;;6.55;;
25045;SDS011;13044;49.304;12.840;2023-10-13T08:19:39;10.68;;;5.45;;
25045;SDS011;13044;49.304;12.840;2023-10-13T08:22:08;9.75;;;5.72;;
25045;SDS011;13044;49.304;12.840;2023-10-13T08:24:45;8.07;;;5.68;;
25045;SDS011;13044;49.304;12.840;2023-10-13T08:27:14;8.68;;;5.53;;
25045;SDS011;13044;49.304;12.840;2023-10-13T08:30:16;8.90;;;5.13;;
25045;SDS011;13044;49.304;12.840;2023-10-13T08:32:56;9.65;;;6.20;;
25045;SDS011;13044;49.304;12.840;2023-10-13T08:35:25;8.15;;;5.45;;
25045;SDS011;13044;49.304;12.840;2023-10-13T08:38:02;12.40;;;6.20;;
25045;SDS011;13044;49.304;12.840;2023-10-13T09:53:20;7.10;;;3.58;;
25045;SDS011;13044;49.304;12.840;2023-10-13T09:55:51;7.60;;;4.20;;
25045;SDS011;13044;49.304;12.840;2023-10-13T09:58:42;8.32;;;4.43;;
25045;SDS011;13044;49.304;12.840;2023-10-13T10:01:24;7.95;;;3.92;;
25045;SDS011;13044;49.304;12.840;2023-10-13T10:04:10;5.90;;;4.10;;
25045;SDS011;13044;49.304;12.840;2023-10-13T10:06:58;8.57;;;4.68;;
25045;SDS011;13044;49.304;12.840;2023-10-13T10:09:27;11.88;;;4.43;;
25045;SDS011;13044;49.304;12.840;2023-10-13T10:12:19;10.70;;;4.53;;
25045;SDS011;13044;49.304;12.840;2023-10-13T10:18:00;8.57;;;4.18;;
25045;SDS011;13044;49.304;12.840;2023-10-13T10:20:30;6.90;;;3.85;;
25045;SDS011;13044;49.304;12.840;2023-10-13T10:23:10;5.93;;;3.70;;
25045;SDS011;13044;49.304;12.840;2023-10-13T10:25:50;9.02;;;4.95;;
25045;SDS011;13044;49.304;12.840;2023-10-13T10:28:18;6.85;;;3.70;;
25045;SDS011;13044;49.304;12.840;2023-10-13T10:30:46;12.50;;;3.70;;
25045;SDS011;13044;49.304;12.840;2023-10-13T10:33:14;6.10;;;3.38;;
25045;SDS011;13044;49.304;12.840;2023-10-13T10:43:51;6.00;;;3.75;;
25045;SDS011;13044;49.304;12.840;2023-10-13T10:46:28;7.00;;;3.90;;
25045;SDS011;13044;49.304;12.840;2023-10-13T10:49:06;6.93;;;3.92;;
25045;SDS011;13044;49.304;12.840;2023-10-13T10:51:36;6.80;;;3.92;;
25045;SDS011;13044;49.304;12.840;2023-10-13T10:54:18;7.35;;;3.22;;
25045;SDS011;13044;49.304;12.840;2023-10-13T10:56:46;5.82;;;3.70;;
25045;SDS011;13044;49.304;12.840;2023-10-13T10:59:19;6.18;;;4.10;;
25045;SDS011;13044;49.304;12.840;2023-10-13T11:01:46;8.30;;;4.00;;
25045;SDS011;13044;49.304;12.840;2023-10-13T11:04:14;7.65;;;3.75;;
25045;SDS011;13044;49.304;12.840;2023-10-13T11:06:46;6.88;;;3.85;;
25045;SDS011;13044;49.304;12.840;2023-10-13T11:09:32;4.20;;;3.38;;
25045;SDS011;13044;49.304;12.840;2023-10-13T11:14:44;8.23;;;4.10;;
25045;SDS011;13044;49.304;12.840;2023-10-13T11:17:20;7.43;;;3.40;;
25045;SDS011;13044;49.304;12.840;2023-10-13T11:19:54;5.93;;;3.50;;
25045;SDS011;13044;49.304;12.840;2023-10-13T11:22:22;11.85;;;3.75;;
25045;SDS011;13044;49.304;12.840;2023-10-13T11:24:59;8.98;;;4.18;;
25045;SDS011;13044;49.304;12.840;2023-10-13T11:27:40;5.10;;;3.53;;
25045;SDS011;13044;49.304;12.840;2023-10-13T11:30:17;7.05;;;3.60;;
25045;SDS011;13044;49.304;12.840;2023-10-13T11:35:34;7.18;;;3.95;;
25045;SDS011;13044;49.304;12.840;2023-10-13T11:41:06;7.60;;;3.53;;
25045;SDS011;13044;49.304;12.840;2023-10-13T11:43:34;7.10;;;3.20;;
25045;SDS011;13044;49.304;12.840;2023-10-13T11:46:22;5.78;;;3.40;;
25045;SDS011;13044;49.304;12.840;2023-10-13T11:49:08;6.28;;;3.50;;
25045;SDS011;13044;49.304;12.840;2023-10-13T11:51:40;4.63;;;3.30;;
25045;SDS011;13044;49.304;12.840;2023-10-13T11:56:41;7.00;;;3.40;;
25045;SDS011;13044;49.304;12.840;2023-10-13T11:59:08;6.82;;;3.88;;
25045;SDS011;13044;49.304;12.840;2023-10-13T12:01:45;8.10;;;3.70;;
25045;SDS011;13044;49.304;12.840;2023-10-13T12:04:32;13.32;;;4.13;;
25045;SDS011;13044;49.304;12.840;2023-10-13T12:07:18;10.63;;;3.83;;
25045;SDS011;13044;49.304;12.840;2023-10-13T12:09:47;6.78;;;3.10;;
25045;SDS011;13044;49.304;12.840;2023-10-13T12:12:25;11.98;;;3.72;;
25045;SDS011;13044;49.304;12.840;2023-10-13T12:14:54;25.20;;;3.58;;
25045;SDS011;13044;49.304;12.840;2023-10-13T12:17:26;11.07;;;3.28;;
25045;SDS011;13044;49.304;12.840;2023-10-13T12:19:58;14.23;;;4.78;;
25045;SDS011;13044;49.304;12.840;2023-10-13T12:22:25;12.77;;;3.67;;
25045;SDS011;13044;49.304;12.840;2023-10-13T12:25:01;6.95;;;3.65;;
25045;SDS011;13044;49.304;12.840;2023-10-13T12:27:45;8.82;;;3.58;;
25045;SDS011;13044;49.304;12.840;2023-10-13T12:30:14;9.13;;;3.67;;
25045;SDS011;13044;49.304;12.840;2023-10-13T12:32:49;8.57;;;3.20;;
25045;SDS011;13044;49.304;12.840;2023-10-13T12:35:24;10.10;;;3.50;;
25045;SDS011;13044;49.304;12.840;2023-10-13T12:38:01;9.80;;;3.75;;
25045;SDS011;13044;49.304;12.840;2023-10-13T12:40:31;6.00;;;2.90;;
25045;SDS011;13044;49.304;12.840;2023-10-13T12:43:17;4.07;;;3.15;;
25045;SDS011;13044;49.304;12.840;2023-10-13T12:46:03;8.27;;;3.45;;
25045;SDS011;13044;49.304;12.840;2023-10-13T12:48:48;6.13;;;3.42;;
25045;SDS011;13044;49.304;12.840;2023-10-13T12:51:30;6.63;;;3.38;;
25045;SDS011;13044;49.304;12.840;2023-10-13T12:54:03;7.95;;;3.50;;
25045;SDS011;13044;49.304;12.840;2023-10-13T12:56:46;11.88;;;3.63;;
25045;SDS011;13044;49.304;12.840;2023-10-13T12:59:13;10.82;;;3.42;;
25045;SDS011;13044;49.304;12.840;2023-10-13T13:01:40;5.03;;;3.42;;
25045;SDS011;13044;49.304;12.840;2023-10-13T13:04:10;7.10;;;3.05;;
25045;SDS011;13044;49.304;12.840;2023-10-13T13:06:45;8.95;;;3.30;;
25045;SDS011;13044;49.304;12.840;2023-10-13T13:09:16;7.07;;;3.58;;
25045;SDS011;13044;49.304;12.840;2023-10-13T13:11:52;5.93;;;3.30;;
25045;SDS011;13044;49.304;12.840;2023-10-13T13:14:26;6.30;;;3.25;;
25045;SDS011;13044;49.304;12.840;2023-10-13T13:16:55;10.07;;;3.20;;
25045;SDS011;13044;49.304;12.840;2023-10-13T13:19:32;6.70;;;2.90;;
25045;SDS011;13044;49.304;12.840;2023-10-13T13:22:07;9.77;;;3.63;;
25045;SDS011;13044;49.304;12.840;2023-10-13T13:24:42;7.20;;;3.30;;
25045;SDS011;13044;49.304;12.840;2023-10-13T13:27:11;6.85;;;3.50;;
25045;SDS011;13044;49.304;12.840;2023-10-13T13:29:40;7.75;;;3.70;;
25045;SDS011;13044;49.304;12.840;2023-10-13T13:32:08;6.85;;;3.40;;
25045;SDS011;13044;49.304;12.840;2023-10-13T13:34:51;8.43;;;3.47;;
25045;SDS011;13044;49.304;12.840;2023-10-13T13:37:31;8.43;;;3.38;;
25045;SDS011;13044;49.304;12.840;2023-10-13T13:39:58;7.72;;;3.20;;
25045;SDS011;13044;49.304;12.840;2023-10-13T13:45:18;9.60;;;3.92;;
25045;SDS011;13044;49.304;12.840;2023-10-13T13:47:53;8.32;;;3.53;;
25045;SDS011;13044;49.304;12.840;2023-10-13T13:50:22;9.77;;;3.20;;
25045;SDS011;13044;49.304;12.840;2023-10-13T13:52:54;4.43;;;3.25;;
25045;SDS011;13044;49.304;12.840;2023-10-13T13:55:23;6.68;;;3.40;;
25045;SDS011;13044;49.304;12.840;2023-10-13T13:57:58;8.60;;;3.43;;
25045;SDS011;13044;49.304;12.840;2023-10-13T14:00:25;7.50;;;3.38;;
25045;SDS011;13044;49.304;12.840;2023-10-13T14:03:05;10.35;;;2.92;;
25045;SDS011;13044;49.304;12.840;2023-10-13T14:05:42;8.57;;;3.55;;
25045;SDS011;13044;49.304;12.840;2023-10-13T14:08:09;8.88;;;3.47;;
25045;SDS011;13044;49.304;12.840;2023-10-13T14:10:41;9.75;;;3.78;;
25045;SDS011;13044;49.304;12.840;2023-10-13T14:13:27;5.15;;;3.08;;
25045;SDS011;13044;49.304;12.840;2023-10-13T14:16:12;7.07;;;3.08;;
25045;SDS011;13044;49.304;12.840;2023-10-13T14:18:46;6.65;;;3.00;;
25045;SDS011;13044;49.304;12.840;2023-10-13T14:21:16;4.07;;;2.83;;
25045;SDS011;13044;49.304;12.840;2023-10-13T14:26:16;7.57;;;3.03;;
25045;SDS011;13044;49.304;12.840;2023-10-13T14:28:52;10.32;;;4.03;;
25045;SDS011;13044;49.304;12.840;2023-10-13T14:31:29;9.07;;;3.70;;
25045;SDS011;13044;49.304;12.840;2023-10-13T14:33:57;10.18;;;3.58;;
25045;SDS011;13044;49.304;12.840;2023-10-13T14:36:24;5.97;;;3.55;;
25045;SDS011;13044;49.304;12.840;2023-10-13T14:38:55;4.60;;;3.15;;
25045;SDS011;13044;49.304;12.840;2023-10-13T14:41:22;6.97;;;3.20;;
25045;SDS011;13044;49.304;12.840;2023-10-13T14:43:50;7.63;;;3.50;;
25045;SDS011;13044;49.304;12.840;2023-10-13T14:46:17;6.20;;;3.17;;
25045;SDS011;13044;49.304;12.840;2023-10-13T14:48:52;6.88;;;3.28;;
25045;SDS011;13044;49.304;12.840;2023-10-13T14:51:19;7.50;;;3.13;;
25045;SDS011;13044;49.304;12.840;2023-10-13T14:53:47;5.18;;;3.08;;
25045;SDS011;13044;49.304;12.840;2023-10-13T14:56:19;4.78;;;3.10;;
25045;SDS011;13044;49.304;12.840;2023-10-13T14:58:46;8.93;;;3.10;;
25045;SDS011;13044;49.304;12.840;2023-10-13T15:01:16;6.70;;;3.08;;
25045;SDS011;13044;49.304;12.840;2023-10-13T15:03:47;10.27;;;3.35;;
25045;SDS011;13044;49.304;12.840;2023-10-13T15:06:16;5.78;;;2.80;;
25045;SDS011;13044;49.304;12.840;2023-10-13T15:08:51;8.63;;;2.95;;
25045;SDS011;13044;49.304;12.840;2023-10-13T15:11:22;5.20;;;2.80;;
25045;SDS011;13044;49.304;12.840;2023-10-13T15:13:53;7.28;;;2.72;;
25045;SDS011;13044;49.304;12.840;2023-10-13T15:16:23;7.68;;;3.20;;
25045;SDS011;13044;49.304;12.840;2023-10-13T15:18:53;6.15;;;3.40;;
25045;SDS011;13044;49.304;12.840;2023-10-13T15:21:21;6.03;;;3.05;;
25045;SDS011;13044;49.304;12.840;2023-10-13T15:24:01;8.70;;;3.45;;
25045;SDS011;13044;49.304;12.840;2023-10-13T15:29:19;8.57;;;3.45;;
25045;SDS011;13044;49.304;12.840;2023-10-13T15:34:25;10.20;;;3.13;;
25045;SDS011;13044;49.304;12.840;2023-10-13T15:36:53;6.00;;;2.97;;
25045;SDS011;13044;49.304;12.840;2023-10-13T15:39:22;7.63;;;2.85;;
25045;SDS011;13044;49.304;12.840;2023-10-13T15:41:50;9.10;;;3.53;;
25045;SDS011;13044;49.304;12.840;2023-10-13T15:44:21;6.40;;;3.30;;
25045;SDS011;13044;49.304;12.840;2023-10-13T15:46:54;5.72;;;2.95;;
25045;SDS011;13044;49.304;12.840;2023-10-13T15:49:25;9.38;;;3.00;;
25045;SDS011;13044;49.304;12.840;2023-10-13T15:51:54;6.57;;;3.13;;
25045;SDS011;13044;49.304;12.840;2023-10-13T15:54:24;7.68;;;3.60;;
25045;SDS011;13044;49.304;12.840;2023-10-13T15:56:51;10.80;;;2.70;;
25045;SDS011;13044;49.304;12.840;2023-10-13T15:59:18;9.32;;;3.30;;
25045;SDS011;13044;49.304;12.840;2023-10-13T16:01:45;6.65;;;3.08;;
25045;SDS011;13044;49.304;12.840;2023-10-13T16:04:15;5.30;;;3.05;;
25045;SDS011;13044;49.304;12.840;2023-10-13T16:06:45;7.15;;;3.40;;
25045;SDS011;13044;49.304;12.840;2023-10-13T16:09:14;4.93;;;2.85;;
25045;SDS011;13044;49.304;12.840;2023-10-13T16:11:44;11.07;;;3.45;;
25045;SDS011;13044;49.304;12.840;2023-10-13T16:14:14;6.72;;;3.83;;
25045;SDS011;13044;49.304;12.840;2023-10-13T16:16:43;6.20;;;3.22;;
25045;SDS011;13044;49.304;12.840;2023-10-13T16:19:19;12.30;;;4.15;;
25045;SDS011;13044;49.304;12.840;2023-10-13T16:21:49;8.90;;;3.22;;
25045;SDS011;13044;49.304;12.840;2023-10-13T16:24:20;6.90;;;3.33;;
25045;SDS011;13044;49.304;12.840;2023-10-13T16:26:49;6.85;;;3.33;;
25045;SDS011;13044;49.304;12.840;2023-10-13T16:29:22;12.70;;;3.53;;
25045;SDS011;13044;49.304;12.840;2023-10-13T16:31:49;10.88;;;3.28;;
25045;SDS011;13044;49.304;12.840;2023-10-13T16:34:17;6.65;;;3.53;;
25045;SDS011;13044;49.304;12.840;2023-10-13T16:36:45;5.55;;;2.90;;
25045;SDS011;13044;49.304;12.840;2023-10-13T16:39:13;8.00;;;3.38;;
25045;SDS011;13044;49.304;12.840;2023-10-13T16:41:42;15.07;;;4.47;;
25045;SDS011;13044;49.304;12.840;2023-10-13T16:44:11;14.70;;;3.88;;
25045;SDS011;13044;49.304;12.840;2023-10-13T16:46:39;10.45;;;3.60;;
25045;SDS011;13044;49.304;12.840;2023-10-13T16:49:07;10.23;;;3.83;;
25045;SDS011;13044;49.304;12.840;2023-10-13T16:51:35;12.50;;;6.00;;
25045;SDS011;13044;49.304;12.840;2023-10-13T16:54:02;9.23;;;4.95;;
25045;SDS011;13044;49.304;12.840;2023-10-13T16:56:31;9.68;;;5.40;;
25045;SDS011;13044;49.304;12.840;2023-10-13T16:58:58;11.65;;;4.93;;
25045;SDS011;13044;49.304;12.840;2023-10-13T17:01:27;8.10;;;3.60;;
25045;SDS011;13044;49.304;12.840;2023-10-13T17:03:54;11.60;;;4.47;;
25045;SDS011;13044;49.304;12.840;2023-10-13T17:06:21;6.00;;;3.70;;
25045;SDS011;13044;49.304;12.840;2023-10-13T17:08:49;7.07;;;3.88;;